Fuerteventura, Spain

05:33 PM WEST am 27. März 2017 (GMT +0100)
Fuerteventura | | Change Station

Höhe 75 ft 28.45 °N, 13.87 °W | Updated 33 minutes ago

Scattered Clouds
Teils Wolkig
70 °F
gefühlte 70 °F
N
18
Wind Wechselnd Wind aus Nordost

Heute
Max. -- | schwach -- °F
--% Regenrisiko
Gestern
Max. -- | schwach -- °F
Precip. -- inch
Druck 30.12 inch
Sichtweite 6.2 Meilen
Wolken Teils Wolkig 4500 ft
Taupunkt 59 °F
Feuchtigkeit 68%
Regen 0.00 inch
Schneehöhe Nicht verfügbar..
7:51 AM 8:10 PM
Letztes Viertel, 0% visible
METAR GCFV 271600Z 04016KT 9999 SCT045 21/15 Q1020
Druck 30.12 inch
Sichtweite 6.2 Meilen
Wolken Teils Wolkig 4500 ft
Taupunkt 59 °F
Feuchtigkeit 68%
Regen 0.00 inch
Schneehöhe Nicht verfügbar..
7:51 AM 8:10 PM
Letztes Viertel, 0% visible
METAR GCFV 271600Z 04016KT 9999 SCT045 21/15 Q1020

Get Severe Weather Alerts

Thanks for signing up!

Be on the lookout for a verification email in your inbox.

You'll start receiving the daily forecast at 8 AM.

×

10-Day Weather Forecast

×

Almanac

Astronomie

Mar. 27, 2017 Aufgang Untergang
Genaue Zeit
Bürgerliche Dämmerung
Nautische Dämmerung
Astronomische Dämmerung
Mond
Länge des sichtbaren Lichts
Tageslänge
Tomorrow will be .
, % of the Moon is Illuminated

Heutige Rekorde

Country Highs Country Lows

Community

WunderPhotos

Upload Photos

1,962,540 Fotos hochgeladen!

WunderBlog® & News

Nearby

Luftqualität

  Luftqualität LQ Index Schadstoff
Not available.

Schneehöhe

Station Depth Höhe

Erdbebenaktivität

Stadt Distance Mag. Time & Date
Minimum magnitude displayed is 2.5.

Erdbebenaktivität

Stadt Distance Mag. Time & Date
Minimum magnitude displayed is 2.5.

küstennahe Wassertemperaturen

Ort Temperatur

Stations

Wetterstationen in der Umgebung

Stationsstandort Temp. Windchill Taupunkt Feuchtigkeit Wind Precip. Höhe Aktualisiert Art